Time;durP1;ratioP1;P1;durP2;ratioP2;P2;SDS_P1;SDS_P2;PMS_P1;PMS_P2;Temp;Humidity;BMP_temperature;BMP_pressure;BME280_temperature;BME280_humidity;BME280_pressure;Samples;Min_cycle;Max_cycle;Signal;HPM_P1;HPM_P2
2022/12/04 00:01:49;;;;;;;30.30;16.67;;;3.60;1.00;;;;;;5032734;28;20240;-85
2022/12/04 00:04:15;;;;;;;33.17;18.70;;;3.70;1.00;;;;;;5025605;28;20270;-84
2022/12/04 00:06:41;;;;;;;31.40;17.53;;;3.70;1.00;;;;;;5048975;28;20212;-84
2022/12/04 00:09:07;;;;;;;28.57;16.37;;;3.70;1.00;;;;;;5050377;28;20758;-84
2022/12/04 00:11:34;;;;;;;33.85;18.00;;;3.70;1.00;;;;;;5038446;28;20170;-85
2022/12/04 00:14:00;;;;;;;27.63;17.02;;;3.70;1.00;;;;;;5035404;28;20190;-85
2022/12/04 00:16:30;;;;;;;28.97;17.47;;;3.70;1.00;;;;;;5038813;28;20208;-84
2022/12/04 00:18:57;;;;;;;35.92;17.10;;;3.70;1.00;;;;;;5038210;28;20470;-84
2022/12/04 00:21:24;;;;;;;30.13;16.30;;;3.70;1.00;;;;;;5039002;28;20182;-85
2022/12/04 00:23:50;;;;;;;33.47;17.05;;;3.70;1.00;;;;;;5016990;28;20214;-84
2022/12/04 00:26:18;;;;;;;30.88;17.45;;;3.70;1.00;;;;;;5036818;28;20233;-84
2022/12/04 00:28:44;;;;;;;31.15;17.00;;;3.70;1.00;;;;;;5037297;28;20206;-83
2022/12/04 00:31:13;;;;;;;31.92;18.35;;;3.70;1.00;;;;;;5042169;28;20243;-84
2022/12/04 00:33:39;;;;;;;30.70;17.08;;;3.60;1.00;;;;;;5024966;28;20633;-82
2022/12/04 00:36:08;;;;;;;29.85;17.30;;;3.70;1.00;;;;;;5028877;28;20274;-84
2022/12/04 00:38:34;;;;;;;34.85;18.23;;;3.70;1.00;;;;;;5043800;28;20183;-84
2022/12/04 00:40:59;;;;;;;29.43;16.87;;;3.70;1.00;;;;;;5031071;28;20671;-84
2022/12/04 00:43:25;;;;;;;31.63;17.47;;;3.70;1.00;;;;;;5038635;28;20205;-83
2022/12/04 00:45:51;;;;;;;33.70;17.00;;;3.70;1.00;;;;;;5018483;28;20210;-85
2022/12/04 00:48:17;;;;;;;30.67;16.67;;;3.70;1.00;;;;;;5043698;28;20209;-85
2022/12/04 00:50:42;;;;;;;28.73;16.67;;;3.70;1.00;;;;;;5038295;28;20175;-85
2022/12/04 00:53:08;;;;;;;29.50;16.50;;;3.80;1.00;;;;;;5023018;28;20193;-85
2022/12/04 00:55:37;;;;;;;35.23;18.53;;;3.70;1.00;;;;;;5033819;28;20201;-85
2022/12/04 00:58:03;;;;;;;34.75;17.00;;;3.70;1.00;;;;;;5055019;28;20232;-86
2022/12/04 01:00:29;;;;;;;35.42;17.25;;;3.70;1.00;;;;;;5041425;28;20240;-85
2022/12/04 01:02:55;;;;;;;31.42;17.45;;;3.70;1.00;;;;;;5016183;28;20198;-85
2022/12/04 01:05:21;;;;;;;37.03;18.40;;;3.70;1.00;;;;;;5016162;28;20200;-84
2022/12/04 01:07:46;;;;;;;30.03;15.73;;;3.70;1.00;;;;;;5034487;28;20612;-85
2022/12/04 01:10:12;;;;;;;34.87;17.27;;;3.70;1.00;;;;;;5033749;28;20174;-84
2022/12/04 01:12:38;;;;;;;30.80;18.70;;;3.70;1.00;;;;;;5030944;28;20557;-85
2022/12/04 01:15:04;;;;;;;35.30;17.93;;;3.80;1.00;;;;;;5034160;28;20432;-84
2022/12/04 01:17:29;;;;;;;32.55;17.10;;;3.70;1.00;;;;;;5032864;28;20178;-85
2022/12/04 01:19:55;;;;;;;32.40;18.23;;;3.70;1.00;;;;;;5030014;28;20309;-85
2022/12/04 01:22:20;;;;;;;28.83;16.50;;;3.60;1.00;;;;;;5033763;28;20658;-84
2022/12/04 01:24:46;;;;;;;33.27;17.53;;;3.60;1.00;;;;;;5031662;28;20265;-85
2022/12/04 01:27:11;;;;;;;34.03;18.30;;;3.60;1.00;;;;;;5033056;28;20213;-85
2022/12/04 01:29:37;;;;;;;28.33;16.47;;;3.60;1.00;;;;;;5031146;28;20265;-84
2022/12/04 01:32:03;;;;;;;37.37;19.00;;;3.50;1.00;;;;;;5034253;28;20257;-84
2022/12/04 01:34:28;;;;;;;30.40;16.90;;;3.60;10.10;;;;;;5002217;28;20270;-84
2022/12/04 01:36:54;;;;;;;34.03;19.17;;;3.60;99.90;;;;;;5031668;28;20479;-85
2022/12/04 01:39:19;;;;;;;26.50;14.90;;;3.60;99.90;;;;;;5031121;28;20202;-84
2022/12/04 01:41:45;;;;;;;33.63;18.60;;;3.60;15.30;;;;;;5032219;28;20217;-85
2022/12/04 01:44:15;;;;;;;38.97;18.00;;;3.60;1.00;;;;;;5034259;28;20265;-84
2022/12/04 01:46:43;;;;;;;30.45;17.25;;;3.60;99.90;;;;;;5017908;28;20681;-84
2022/12/04 01:49:14;;;;;;;32.22;18.10;;;3.60;99.90;;;;;;5016740;28;20203;-85
2022/12/04 01:51:44;;;;;;;36.22;17.73;;;3.60;74.70;;;;;;5014331;28;20178;-85
2022/12/04 01:54:16;;;;;;;32.92;17.55;;;3.60;99.90;;;;;;5013040;28;20450;-85
2022/12/04 01:56:51;;;;;;;31.67;18.02;;;3.60;99.90;;;;;;5030741;28;20206;-84
2022/12/04 01:59:19;;;;;;;32.17;18.20;;;3.60;99.90;;;;;;5029471;28;20201;-84
2022/12/04 02:01:54;;;;;;;31.50;16.85;;;3.60;99.90;;;;;;5029291;28;20192;-84
2022/12/04 02:04:20;;;;;;;31.10;16.38;;;3.60;99.90;;;;;;5031263;28;20659;-84
2022/12/04 02:06:46;;;;;;;32.00;18.33;;;3.50;99.90;;;;;;5033707;28;20224;-84
2022/12/04 02:09:11;;;;;;;31.33;16.63;;;3.50;99.90;;;;;;5030378;28;20257;-84
2022/12/04 02:11:50;;;;;;;33.90;17.97;;;3.50;1.00;;;;;;5033021;28;20678;-86
2022/12/04 02:14:20;;;;;;;39.15;19.05;;;3.60;1.00;;;;;;5033153;28;20248;-85
2022/12/04 02:16:55;;;;;;;32.95;17.08;;;3.50;99.90;;;;;;5031604;28;20204;-84
2022/12/04 02:19:39;;;;;;;34.75;19.05;;;3.50;99.90;;;;;;5033684;28;20190;-84
2022/12/04 02:22:18;;;;;;;32.45;18.42;;;3.50;99.90;;;;;;5031718;28;20194;-84
2022/12/04 02:24:58;;;;;;;34.70;18.23;;;3.50;1.00;;;;;;5034279;28;20182;-84
2022/12/04 02:27:29;;;;;;;32.97;18.15;;;3.50;1.00;;;;;;5030577;28;21193;-85
2022/12/04 02:30:08;;;;;;;34.72;18.00;;;3.60;1.00;;;;;;5022353;28;20240;-85
2022/12/04 02:33:27;;;;;;;35.78;19.42;;;3.60;1.00;;;;;;5035694;28;20201;-85
2022/12/04 02:36:07;;;;;;;39.88;19.02;;;3.60;99.90;;;;;;5015703;28;20218;-85
2022/12/04 02:38:40;;;;;;;36.25;17.90;;;3.50;99.90;;;;;;5037986;28;20276;-84
2022/12/04 02:41:18;;;;;;;36.75;19.35;;;3.50;99.90;;;;;;5039600;28;20656;-85
2022/12/04 02:44:09;;;;;;;33.22;18.55;;;3.50;99.90;;;;;;5025875;28;20546;-84
2022/12/04 02:46:42;;;;;;;35.13;20.08;;;3.40;99.90;;;;;;5024613;28;20613;-85
2022/12/04 02:49:15;;;;;;;39.13;18.67;;;3.40;1.00;;;;;;5033537;28;20210;-85
2022/12/04 02:51:44;;;;;;;44.97;20.73;;;3.40;1.00;;;;;;5030597;28;20182;-84
2022/12/04 02:54:27;;;;;;;34.55;18.45;;;3.40;99.90;;;;;;5015748;28;20185;-84
2022/12/04 02:56:54;;;;;;;35.22;18.52;;;3.40;1.00;;;;;;5033033;28;20228;-85
2022/12/04 02:59:33;;;;;;;37.15;18.95;;;3.40;1.00;;;;;;5018804;28;20243;-84
2022/12/04 03:02:06;;;;;;;42.45;20.65;;;3.30;1.00;;;;;;5033925;28;20236;-84
2022/12/04 03:04:32;;;;;;;43.88;19.98;;;3.30;1.00;;;;;;5018035;28;20190;-85
2022/12/04 03:07:08;;;;;;;44.60;20.02;;;3.30;1.00;;;;;;5032522;28;20221;-85
2022/12/04 03:09:55;;;;;;;38.70;19.17;;;3.30;23.60;;;;;;5034425;28;20219;-85
2022/12/04 03:12:53;;;;;;;43.28;21.40;;;3.30;99.90;;;;;;5017835;28;20231;-85
2022/12/04 03:15:30;;;;;;;35.20;20.08;;;3.30;13.10;;;;;;5028178;28;20221;-85
2022/12/04 03:18:27;;;;;;;41.20;18.60;;;3.40;99.90;;;;;;5015625;28;20199;-85
2022/12/04 03:21:01;;;;;;;39.95;19.08;;;3.40;55.30;;;;;;5032811;28;20324;-85
2022/12/04 03:23:36;;;;;;;43.80;19.48;;;3.40;1.00;;;;;;5034796;28;20246;-84
2022/12/04 03:26:14;;;;;;;37.08;19.17;;;3.30;1.00;;;;;;5035256;28;20297;-84
2022/12/04 03:29:05;;;;;;;31.23;17.77;;;3.40;1.00;;;;;;5036244;28;20205;-85
2022/12/04 03:31:54;;;;;;;35.08;19.75;;;3.40;19.20;;;;;;5034624;28;20697;-85
2022/12/04 03:34:47;;;;;;;33.20;19.13;;;3.40;1.00;;;;;;5034229;28;20681;-85
2022/12/04 03:37:17;;;;;;;41.50;20.60;;;3.40;1.00;;;;;;5037108;28;20190;-85
2022/12/04 03:39:59;;;;;;;44.08;21.48;;;3.40;1.00;;;;;;5033376;28;20209;-85
2022/12/04 03:42:36;;;;;;;35.85;17.73;;;3.40;1.00;;;;;;5035298;28;20202;-85
2022/12/04 03:45:06;;;;;;;41.33;19.40;;;3.30;1.00;;;;;;5036671;28;20184;-85
2022/12/04 03:47:57;;;;;;;41.90;20.70;;;3.30;1.00;;;;;;5032603;28;20597;-85
2022/12/04 03:50:36;;;;;;;34.17;18.50;;;3.30;1.00;;;;;;5023952;28;20273;-85
2022/12/04 03:53:16;;;;;;;33.85;18.27;;;3.30;1.00;;;;;;5033439;28;20201;-85
2022/12/04 03:55:55;;;;;;;34.50;17.88;;;3.30;1.00;;;;;;5029212;28;20197;-85
2022/12/04 03:58:27;;;;;;;37.72;19.00;;;3.20;1.00;;;;;;5034221;28;20554;-84
2022/12/04 04:00:54;;;;;;;40.45;18.58;;;3.20;1.00;;;;;;5017086;28;20765;-85
2022/12/04 04:03:24;;;;;;;37.03;18.00;;;3.20;1.00;;;;;;5018294;28;20262;-85
2022/12/04 04:06:05;;;;;;;37.95;18.35;;;3.20;1.00;;;;;;5031967;28;20308;-84
2022/12/04 04:08:35;;;;;;;50.17;21.00;;;3.20;1.00;;;;;;5020884;28;20697;-85
2022/12/04 04:11:10;;;;;;;37.75;19.55;;;3.20;1.00;;;;;;5039306;28;20269;-85
2022/12/04 04:25:01;;;;;;;37.90;18.95;;;3.20;1.00;;;;;;5036707;28;22355;-85
2022/12/04 04:27:26;;;;;;;37.65;19.10;;;3.30;32.80;;;;;;5033912;28;20236;-84
2022/12/04 04:29:52;;;;;;;40.53;18.57;;;3.30;1.00;;;;;;5037905;28;20561;-85
2022/12/04 04:32:33;;;;;;;36.07;18.40;;;3.30;1.00;;;;;;5049607;28;20277;-85
2022/12/04 04:35:13;;;;;;;34.92;17.80;;;3.30;1.00;;;;;;5052363;28;20170;-85
2022/12/04 04:37:38;;;;;;;39.70;18.33;;;3.30;1.00;;;;;;5049134;28;20182;-85
2022/12/04 04:40:28;;;;;;;35.37;19.33;;;3.30;1.00;;;;;;5020781;28;20220;-85
2022/12/04 04:42:59;;;;;;;35.95;19.70;;;3.20;1.00;;;;;;5021913;28;20186;-85
2022/12/04 04:45:36;;;;;;;39.42;20.30;;;3.20;1.00;;;;;;5036762;28;20209;-85
2022/12/04 04:48:08;;;;;;;44.58;20.27;;;3.20;63.90;;;;;;5039143;28;20555;-85
2022/12/04 04:50:35;;;;;;;33.97;17.35;;;3.20;99.90;;;;;;5037079;28;20186;-85
2022/12/04 04:53:05;;;;;;;41.60;19.50;;;3.20;99.90;;;;;;5020190;28;20232;-85
2022/12/04 04:55:33;;;;;;;33.30;18.10;;;3.20;99.90;;;;;;5033770;28;20198;-85
2022/12/04 04:58:13;;;;;;;39.38;19.75;;;3.20;99.90;;;;;;5019347;28;20669;-85
2022/12/04 05:00:43;;;;;;;39.47;19.88;;;3.20;99.90;;;;;;5050858;28;20189;-87
2022/12/04 05:03:09;;;;;;;40.25;20.27;;;3.20;99.90;;;;;;5054178;28;20185;-85
2022/12/04 05:05:34;;;;;;;36.97;18.63;;;3.20;99.90;;;;;;5041491;28;20206;-84
2022/12/04 05:08:00;;;;;;;32.47;18.20;;;3.20;99.90;;;;;;5032084;28;20296;-84
2022/12/04 05:10:25;;;;;;;39.37;19.73;;;3.20;99.90;;;;;;5032306;28;20189;-85
2022/12/04 05:12:51;;;;;;;36.17;19.63;;;3.20;99.90;;;;;;5009166;28;20182;-84
2022/12/04 05:15:16;;;;;;;36.03;20.20;;;3.20;99.90;;;;;;5030619;28;20264;-83
2022/12/04 05:17:42;;;;;;;34.20;18.23;;;3.20;99.90;;;;;;5013307;28;20542;-84
2022/12/04 05:20:09;;;;;;;39.53;19.97;;;3.20;99.90;;;;;;5012772;28;20604;-84
2022/12/04 05:22:35;;;;;;;35.55;20.50;;;3.20;1.00;;;;;;5028845;28;20201;-84
2022/12/04 05:25:02;;;;;;;40.17;20.10;;;3.20;1.00;;;;;;5030325;28;20200;-84
2022/12/04 05:27:28;;;;;;;37.45;19.15;;;3.20;1.00;;;;;;5031497;28;20268;-84
2022/12/04 05:29:56;;;;;;;35.03;18.35;;;3.20;1.00;;;;;;5015003;28;20182;-84
2022/12/04 05:32:23;;;;;;;45.88;20.25;;;3.20;1.00;;;;;;5029658;28;20183;-84
2022/12/04 05:34:53;;;;;;;38.03;19.05;;;3.20;1.00;;;;;;5027313;28;20185;-84
2022/12/04 05:37:19;;;;;;;38.05;18.33;;;3.30;1.00;;;;;;5027408;28;20195;-84
2022/12/04 05:39:45;;;;;;;35.65;21.27;;;3.30;1.00;;;;;;5032876;28;20197;-84
2022/12/04 05:42:11;;;;;;;34.27;18.93;;;3.30;1.00;;;;;;5031110;28;20186;-84
2022/12/04 05:44:36;;;;;;;37.30;19.53;;;3.30;99.90;;;;;;5029394;28;20603;-84
2022/12/04 05:47:02;;;;;;;36.97;19.07;;;3.30;99.90;;;;;;5031817;28;20206;-84
2022/12/04 05:49:29;;;;;;;32.40;18.27;;;3.20;99.90;;;;;;5013324;28;20265;-85
2022/12/04 05:51:54;;;;;;;37.08;19.02;;;3.20;99.90;;;;;;5030496;28;20441;-83
2022/12/04 05:54:20;;;;;;;36.53;19.70;;;3.20;99.90;;;;;;5025581;28;20437;-84
2022/12/04 05:56:46;;;;;;;38.43;19.40;;;3.20;99.90;;;;;;5031350;28;20248;-85
2022/12/04 05:59:12;;;;;;;37.27;19.73;;;3.20;99.90;;;;;;5031460;28;20186;-84
2022/12/04 06:01:38;;;;;;;35.70;18.02;;;3.20;99.90;;;;;;5032351;28;20777;-84
2022/12/04 06:04:03;;;;;;;37.67;19.37;;;3.20;99.90;;;;;;5030994;28;20256;-84
2022/12/04 06:06:29;;;;;;;37.30;18.97;;;3.20;1.00;;;;;;5021556;28;20265;-83
2022/12/04 06:08:57;;;;;;;37.13;19.17;;;3.10;1.00;;;;;;5034532;28;20571;-85
2022/12/04 06:11:25;;;;;;;38.20;20.63;;;3.10;1.00;;;;;;5043298;28;20182;-85
2022/12/04 06:13:51;;;;;;;37.35;19.20;;;3.10;1.00;;;;;;5042216;28;20186;-84
2022/12/04 06:16:20;;;;;;;38.33;18.73;;;3.10;1.00;;;;;;5051648;28;20208;-84
2022/12/04 06:18:51;;;;;;;33.65;18.00;;;3.20;1.00;;;;;;5025399;28;20445;-84
2022/12/04 06:21:17;;;;;;;37.63;19.77;;;3.10;1.00;;;;;;5051429;28;20188;-84
2022/12/04 06:23:43;;;;;;;40.88;18.42;;;3.10;1.00;;;;;;5039828;28;20214;-84
2022/12/04 06:26:09;;;;;;;34.40;18.50;;;3.10;97.80;;;;;;5025858;28;20316;-84
2022/12/04 06:28:35;;;;;;;28.97;16.80;;;3.10;1.00;;;;;;5035558;28;21763;-84
2022/12/04 06:31:11;;;;;;;38.72;19.20;;;3.10;1.00;;;;;;5048302;28;20668;-84
2022/12/04 06:33:37;;;;;;;36.22;18.05;;;3.00;1.00;;;;;;5039620;28;20195;-84
2022/12/04 06:36:10;;;;;;;38.63;18.73;;;3.00;1.00;;;;;;5037558;28;20222;-84
2022/12/04 06:38:36;;;;;;;31.10;16.75;;;2.90;83.30;;;;;;5035384;28;20534;-84
2022/12/04 06:41:06;;;;;;;32.03;17.08;;;2.90;99.90;;;;;;5021582;28;20278;-84
2022/12/04 06:43:33;;;;;;;32.65;17.40;;;2.80;99.90;;;;;;5018299;28;20186;-83
2022/12/04 06:45:59;;;;;;;35.80;18.15;;;2.80;1.00;;;;;;5038971;28;20667;-85
2022/12/04 06:48:27;;;;;;;40.28;18.73;;;2.80;1.00;;;;;;5041908;28;20597;-85
2022/12/04 06:51:32;;;;;;;40.22;18.90;;;2.80;1.00;;;;;;5044523;28;20206;-84
2022/12/04 06:53:58;;;;;;;30.52;17.15;;;2.80;1.00;;;;;;4989749;28;20205;-84
2022/12/04 06:56:26;;;;;;;34.97;17.13;;;2.80;28.90;;;;;;5036768;28;20202;-84
2022/12/04 06:58:54;;;;;;;36.88;18.42;;;2.80;99.90;;;;;;5039090;28;20190;-84
2022/12/04 07:01:23;;;;;;;31.60;18.30;;;2.80;1.00;;;;;;5016566;28;20190;-84
2022/12/04 07:03:49;;;;;;;30.48;16.70;;;2.80;9.30;;;;;;5042167;28;20217;-84
2022/12/04 07:06:18;;;;;;;29.38;17.00;;;2.80;1.00;;;;;;5044903;28;20269;-84
2022/12/04 07:08:45;;;;;;;28.67;15.48;;;2.80;1.00;;;;;;5042970;28;20197;-84
2022/12/04 07:11:12;;;;;;;29.58;16.65;;;2.70;1.00;;;;;;5037733;28;20556;-85
2022/12/04 07:13:38;;;;;;;27.85;14.55;;;2.80;1.00;;;;;;5058389;28;20166;-84
2022/12/04 07:16:05;;;;;;;32.03;17.17;;;2.80;1.00;;;;;;5048380;28;20208;-84
2022/12/04 07:18:32;;;;;;;28.73;14.45;;;2.90;99.90;;;;;;5046560;28;20437;-84
2022/12/04 07:20:57;;;;;;;24.65;15.07;;;2.90;1.00;;;;;;5038473;28;20175;-85
2022/12/04 07:23:24;;;;;;;23.87;13.73;;;2.90;99.90;;;;;;5029629;28;20679;-84
2022/12/04 07:25:50;;;;;;;28.80;14.75;;;3.00;99.90;;;;;;5045108;28;20622;-86
2022/12/04 07:28:15;;;;;;;29.07;15.60;;;2.90;99.90;;;;;;5037633;28;20210;-84
2022/12/04 07:30:41;;;;;;;29.23;15.03;;;2.90;1.00;;;;;;5046594;28;20417;-83
2022/12/04 07:33:06;;;;;;;30.90;14.30;;;2.90;1.00;;;;;;5022427;28;20200;-84
2022/12/04 07:35:32;;;;;;;23.97;13.90;;;2.90;1.00;;;;;;5049223;28;20625;-84
2022/12/04 07:37:57;;;;;;;24.80;12.53;;;3.00;1.00;;;;;;5029246;28;20192;-84
2022/12/04 07:40:23;;;;;;;24.03;13.10;;;3.00;99.90;;;;;;5038006;28;20205;-84
2022/12/04 07:42:49;;;;;;;19.37;11.17;;;3.00;99.90;;;;;;5043360;28;20220;-83
2022/12/04 07:45:14;;;;;;;21.50;11.37;;;3.00;42.30;;;;;;5035904;28;20273;-84
2022/12/04 07:47:40;;;;;;;22.30;11.80;;;3.00;1.00;;;;;;5041815;28;20257;-83
2022/12/04 07:50:06;;;;;;;18.93;11.40;;;3.00;99.90;;;;;;5040131;28;20201;-83
2022/12/04 07:52:38;;;;;;;22.17;12.82;;;3.00;1.00;;;;;;5055819;28;20178;-84
2022/12/04 07:55:05;;;;;;;18.27;10.88;;;3.00;1.00;;;;;;5061757;28;20177;-84
2022/12/04 07:57:31;;;;;;;17.77;10.25;;;3.00;1.00;;;;;;5039042;28;20174;-84
2022/12/04 07:59:56;;;;;;;20.80;10.70;;;3.10;1.00;;;;;;5036395;28;20267;-83
2022/12/04 08:02:22;;;;;;;20.47;11.50;;;3.10;20.40;;;;;;5033744;28;20200;-85
2022/12/04 08:04:48;;;;;;;18.30;10.87;;;3.20;53.00;;;;;;5044758;28;20170;-84
2022/12/04 08:07:13;;;;;;;20.73;11.30;;;3.20;99.90;;;;;;5043576;28;20198;-85
2022/12/04 08:09:39;;;;;;;19.00;9.83;;;3.30;99.90;;;;;;5042733;28;20692;-84
2022/12/04 08:12:04;;;;;;;18.07;10.80;;;3.30;1.00;;;;;;5050389;28;20182;-85
2022/12/04 08:14:30;;;;;;;17.00;9.17;;;3.30;1.00;;;;;;5042680;28;20175;-84
2022/12/04 08:16:55;;;;;;;17.23;10.53;;;3.30;1.00;;;;;;5041563;28;20229;-84
2022/12/04 08:19:21;;;;;;;16.50;9.07;;;3.30;99.90;;;;;;5059448;28;20192;-84
2022/12/04 08:21:47;;;;;;;16.20;9.23;;;3.30;99.90;;;;;;5053730;28;20190;-84
2022/12/04 08:24:13;;;;;;;16.60;9.67;;;3.30;99.90;;;;;;5022807;28;20436;-85
2022/12/04 08:26:38;;;;;;;17.80;10.60;;;3.30;99.90;;;;;;5028331;28;20625;-85
2022/12/04 08:29:04;;;;;;;15.60;9.50;;;3.30;99.90;;;;;;5037808;28;20470;-85
2022/12/04 08:31:32;;;;;;;16.38;10.95;;;3.30;99.90;;;;;;5033519;28;20184;-84
2022/12/04 08:33:59;;;;;;;22.20;11.57;;;3.30;89.90;;;;;;5041108;28;20182;-84
2022/12/04 08:36:25;;;;;;;20.70;10.73;;;3.20;83.50;;;;;;5050806;28;20226;-84
2022/12/04 08:38:51;;;;;;;18.42;10.98;;;3.20;99.90;;;;;;5051295;28;20193;-84
2022/12/04 08:41:20;;;;;;;18.33;11.00;;;3.30;99.90;;;;;;5039177;28;20194;-84
2022/12/04 08:43:46;;;;;;;23.00;12.20;;;3.30;99.90;;;;;;5030542;28;20194;-84
2022/12/04 08:46:15;;;;;;;18.50;10.13;;;3.30;99.90;;;;;;5039909;28;20204;-84
2022/12/04 08:48:40;;;;;;;19.42;11.55;;;3.40;99.90;;;;;;5043724;28;20220;-84
2022/12/04 08:51:11;;;;;;;21.33;11.00;;;3.40;99.90;;;;;;5052434;28;20186;-83
2022/12/04 08:53:36;;;;;;;25.88;11.55;;;3.50;99.90;;;;;;5033164;28;20185;-84
2022/12/04 08:56:03;;;;;;;21.00;10.93;;;3.50;99.90;;;;;;5044915;28;20198;-83
2022/12/04 08:58:28;;;;;;;20.05;11.70;;;3.50;99.90;;;;;;5035465;28;20701;-84
2022/12/04 09:00:54;;;;;;;21.27;12.70;;;3.60;99.90;;;;;;5039248;28;20217;-84
2022/12/04 09:03:20;;;;;;;21.37;11.87;;;3.60;99.90;;;;;;5039765;28;20205;-84
2022/12/04 09:05:46;;;;;;;22.17;11.50;;;3.60;99.90;;;;;;5051659;28;20217;-85
2022/12/04 09:08:16;;;;;;;19.42;12.30;;;3.70;99.90;;;;;;5053631;28;20210;-84
2022/12/04 09:10:43;;;;;;;18.33;11.18;;;3.60;99.90;;;;;;5035224;28;20240;-84
2022/12/04 09:13:09;;;;;;;17.48;11.02;;;3.70;99.90;;;;;;5033227;28;20186;-84
2022/12/04 09:15:38;;;;;;;19.43;11.93;;;3.70;99.90;;;;;;5030123;28;20213;-84
2022/12/04 09:18:04;;;;;;;22.38;11.25;;;3.70;99.90;;;;;;5016249;28;20193;-84
2022/12/04 09:20:29;;;;;;;18.70;10.97;;;3.70;99.90;;;;;;5034024;28;20190;-84
2022/12/04 09:22:55;;;;;;;20.97;11.10;;;3.70;73.70;;;;;;5019546;28;20190;-84
2022/12/04 09:25:21;;;;;;;17.03;9.50;;;3.70;1.00;;;;;;5013424;28;20795;-83
2022/12/04 09:27:46;;;;;;;20.93;11.77;;;3.70;1.00;;;;;;5013367;28;20574;-83
2022/12/04 09:30:12;;;;;;;18.57;11.13;;;3.70;1.00;;;;;;5025193;28;20253;-83
2022/12/04 09:32:38;;;;;;;15.23;9.97;;;3.70;1.00;;;;;;5032741;28;20197;-83
2022/12/04 09:35:05;;;;;;;14.63;11.55;;;3.60;99.90;;;;;;5034868;28;20956;-83
2022/12/04 09:37:35;;;;;;;16.13;10.65;;;3.50;99.90;;;;;;5032932;28;20190;-83
2022/12/04 09:40:01;;;;;;;18.98;10.25;;;3.50;99.90;;;;;;5036042;28;20174;-84
2022/12/04 09:42:55;;;;;;;17.85;10.52;;;3.50;99.90;;;;;;5034473;28;20178;-84
2022/12/04 09:45:23;;;;;;;16.02;9.55;;;3.60;99.90;;;;;;5015867;28;20205;-84
2022/12/04 09:47:56;;;;;;;17.98;11.18;;;3.50;99.90;;;;;;5032383;28;20222;-83
2022/12/04 09:50:28;;;;;;;15.30;10.30;;;3.50;99.90;;;;;;5022083;28;20178;-84
2022/12/04 09:52:56;;;;;;;18.38;11.45;;;3.50;99.90;;;;;;5040700;28;20178;-84
2022/12/04 09:55:46;;;;;;;16.00;9.57;;;3.40;99.90;;;;;;5033735;28;20765;-84
2022/12/04 09:58:34;;;;;;;20.75;11.30;;;3.40;99.90;;;;;;5015132;28;20213;-84
2022/12/04 10:01:01;;;;;;;17.35;11.23;;;3.40;99.90;;;;;;5030749;28;20182;-84
2022/12/04 10:03:29;;;;;;;20.20;13.40;;;3.40;99.90;;;;;;5025742;28;20179;-84
2022/12/04 10:06:27;;;;;;;18.75;13.25;;;3.30;99.90;;;;;;5033085;28;20271;-83
2022/12/04 10:09:09;;;;;;;16.40;11.18;;;3.40;99.90;;;;;;5032530;28;20584;-84
2022/12/04 10:11:41;;;;;;;17.58;12.00;;;3.40;99.90;;;;;;5018497;28;20197;-84
2022/12/04 10:14:34;;;;;;;15.38;9.52;;;3.40;99.90;;;;;;5034920;28;20201;-84
2022/12/04 10:17:21;;;;;;;21.42;12.75;;;3.30;99.90;;;;;;5029085;28;20202;-84
2022/12/04 10:20:21;;;;;;;20.25;12.60;;;3.30;99.90;;;;;;5032983;28;20717;-84
2022/12/04 10:23:19;;;;;;;19.35;11.88;;;3.30;99.90;;;;;;5001028;28;20198;-84
2022/12/04 10:25:45;;;;;;;18.52;11.05;;;3.20;99.90;;;;;;5025298;28;22248;-83
2022/12/04 10:28:37;;;;;;;21.80;12.00;;;3.20;99.90;;;;;;5021140;28;20213;-84
2022/12/04 10:31:04;;;;;;;18.42;11.38;;;3.20;99.90;;;;;;5032250;28;20186;-83
2022/12/04 10:33:51;;;;;;;19.02;12.32;;;3.20;99.90;;;;;;5030961;28;20237;-82
2022/12/04 10:36:20;;;;;;;18.60;11.38;;;3.30;99.90;;;;;;5030494;28;20202;-84
2022/12/04 10:39:08;;;;;;;19.50;12.57;;;3.30;99.90;;;;;;5028680;28;20193;-83
2022/12/04 10:41:41;;;;;;;18.48;10.55;;;3.30;99.90;;;;;;5027224;28;20236;-84
2022/12/04 10:44:13;;;;;;;21.33;12.35;;;3.20;99.90;;;;;;5026667;28;20200;-84
2022/12/04 10:46:40;;;;;;;19.80;12.68;;;3.20;99.90;;;;;;5029381;28;20223;-83
2022/12/04 10:49:21;;;;;;;21.98;12.10;;;3.20;99.90;;;;;;5030728;28;20210;-83
2022/12/04 10:51:47;;;;;;;21.10;12.07;;;3.20;99.90;;;;;;5027947;28;20187;-83
2022/12/04 10:54:32;;;;;;;18.57;11.80;;;3.20;99.90;;;;;;5023714;28;20211;-83
2022/12/04 10:57:03;;;;;;;17.08;9.93;;;3.20;99.90;;;;;;5024902;28;20535;-83
2022/12/04 10:59:29;;;;;;;16.73;12.60;;;3.20;99.90;;;;;;5016972;28;20186;-83
2022/12/04 11:02:18;;;;;;;17.42;10.63;;;3.10;99.90;;;;;;5029461;28;20178;-83
2022/12/04 11:04:55;;;;;;;19.73;12.93;;;3.10;99.90;;;;;;5027320;28;20246;-83
2022/12/04 11:07:26;;;;;;;22.00;12.88;;;3.20;1.00;;;;;;5004861;28;20686;-84
2022/12/04 11:09:58;;;;;;;18.55;10.80;;;3.20;1.00;;;;;;4997011;28;20225;-83
2022/12/04 11:12:24;;;;;;;23.00;11.77;;;3.20;1.00;;;;;;5037715;28;20171;-83
2022/12/04 11:15:12;;;;;;;16.93;12.07;;;3.20;99.90;;;;;;5042168;28;20535;-83
2022/12/04 11:17:38;;;;;;;14.95;11.18;;;3.20;99.90;;;;;;5031874;28;20439;-83
2022/12/04 11:20:15;;;;;;;19.03;12.67;;;3.20;99.90;;;;;;5049397;28;20185;-83
2022/12/04 11:22:56;;;;;;;16.85;10.40;;;3.20;99.90;;;;;;5030647;28;20165;-83
2022/12/04 11:25:24;;;;;;;19.75;13.38;;;3.20;1.00;;;;;;5036871;28;20194;-83
2022/12/04 11:27:59;;;;;;;17.17;12.50;;;3.30;1.00;;;;;;5035068;28;20217;-83
2022/12/04 11:30:34;;;;;;;18.70;12.25;;;3.40;1.00;;;;;;5016588;28;20173;-83
2022/12/04 11:33:00;;;;;;;21.98;13.10;;;3.40;99.90;;;;;;5030315;28;20204;-83
2022/12/04 11:35:27;;;;;;;20.77;12.90;;;3.30;99.90;;;;;;5033489;28;20225;-83
2022/12/04 11:38:03;;;;;;;22.15;11.95;;;3.40;99.90;;;;;;5036327;28;20400;-83
2022/12/04 11:40:29;;;;;;;17.35;12.18;;;3.40;99.90;;;;;;5018564;28;20192;-84
2022/12/04 11:43:04;;;;;;;18.87;11.80;;;3.40;99.90;;;;;;5039323;28;20182;-84
2022/12/04 11:45:30;;;;;;;17.75;13.30;;;3.30;99.90;;;;;;5034088;28;20448;-83
2022/12/04 11:48:02;;;;;;;20.23;12.97;;;3.40;99.90;;;;;;5032941;28;20237;-83
2022/12/04 11:50:56;;;;;;;20.25;13.68;;;3.40;99.90;;;;;;5036514;28;20492;-84
2022/12/04 11:53:49;;;;;;;23.88;12.27;;;3.50;99.90;;;;;;5036263;28;20806;-83
2022/12/04 11:56:32;;;;;;;20.30;13.13;;;3.50;99.90;;;;;;5020195;28;20685;-83
2022/12/04 11:59:21;;;;;;;21.92;13.48;;;3.50;99.90;;;;;;5037597;28;20185;-84
2022/12/04 12:02:09;;;;;;;17.73;11.30;;;3.50;99.90;;;;;;5034796;28;20286;-83
2022/12/04 12:04:43;;;;;;;19.70;12.23;;;3.60;99.90;;;;;;5007289;28;20209;-84
2022/12/04 12:07:21;;;;;;;17.23;12.75;;;3.60;99.90;;;;;;5018414;28;20209;-84
2022/12/04 12:10:18;;;;;;;16.88;11.63;;;3.50;99.90;;;;;;5035878;28;20259;-84
2022/12/04 12:13:28;;;;;;;16.45;10.80;;;3.40;99.90;;;;;;5020559;28;20178;-84
2022/12/04 12:16:07;;;;;;;18.63;11.68;;;3.40;99.90;;;;;;5018395;28;20217;-83
2022/12/04 12:19:10;;;;;;;15.35;9.80;;;3.40;99.90;;;;;;5032614;28;20907;-83
2022/12/04 12:22:01;;;;;;;18.00;12.18;;;3.50;99.90;;;;;;5031251;28;20543;-83
2022/12/04 12:25:02;;;;;;;18.40;11.60;;;3.50;99.90;;;;;;5032594;28;20190;-84
2022/12/04 12:27:52;;;;;;;19.77;11.48;;;3.50;99.90;;;;;;5002429;28;20206;-83
2022/12/04 12:30:22;;;;;;;21.80;11.88;;;3.50;99.90;;;;;;5033383;28;20182;-84
2022/12/04 12:32:59;;;;;;;20.15;12.63;;;3.50;99.90;;;;;;5034777;28;20183;-84
2022/12/04 12:35:34;;;;;;;18.88;11.23;;;3.40;99.90;;;;;;5037101;28;20196;-83
2022/12/04 12:38:36;;;;;;;18.10;12.43;;;3.30;99.90;;;;;;5032431;28;20269;-83
2022/12/04 12:41:09;;;;;;;19.88;11.25;;;3.30;99.90;;;;;;5012267;28;20194;-84
2022/12/04 12:43:37;;;;;;;17.20;10.63;;;3.30;1.00;;;;;;5034802;28;20658;-85
2022/12/04 12:46:18;;;;;;;19.35;11.77;;;3.30;1.00;;;;;;5028885;28;20225;-84
2022/12/04 12:49:10;;;;;;;18.83;11.55;;;3.30;1.00;;;;;;5033120;28;20206;-85
2022/12/04 12:51:41;;;;;;;17.58;11.30;;;3.30;1.00;;;;;;5026393;28;20199;-84
2022/12/04 12:54:39;;;;;;;18.98;12.05;;;3.40;1.00;;;;;;5034058;28;20170;-85
2022/12/04 12:57:34;;;;;;;18.27;11.40;;;3.40;1.00;;;;;;5032195;28;20206;-84
2022/12/04 13:00:06;;;;;;;19.90;13.38;;;3.50;1.00;;;;;;5014962;28;20186;-84
2022/12/04 13:05:11;;;;;;;17.45;11.10;;;3.40;1.00;;;;;;5542700;22;20226;-84
2022/12/04 13:08:02;;;;;;;19.67;11.48;;;3.40;1.00;;;;;;5008525;28;20214;-83
2022/12/04 13:10:33;;;;;;;16.50;11.40;;;3.50;1.00;;;;;;5011445;28;20549;-83
2022/12/04 13:13:20;;;;;;;17.98;11.68;;;3.50;1.00;;;;;;5015308;28;20213;-83
2022/12/04 13:15:52;;;;;;;19.17;11.30;;;3.50;1.00;;;;;;4995013;28;20282;-83
2022/12/04 13:18:33;;;;;;;19.38;11.10;;;3.60;1.00;;;;;;5008117;28;20187;-83
2022/12/04 13:21:05;;;;;;;16.42;11.73;;;3.60;99.90;;;;;;5012016;28;20252;-84
2022/12/04 13:23:45;;;;;;;16.50;10.60;;;3.50;99.90;;;;;;5007628;28;20251;-83